createdAt,value
2019-03-29T07:30:55.757Z,33.33
2019-03-29T07:33:32.405Z,30.52
2019-03-29T07:36:02.487Z,30.90
2019-03-29T07:38:30.875Z,33.92
2019-03-29T07:40:59.274Z,36.00
2019-03-29T07:43:27.729Z,32.58
2019-03-29T07:45:57.204Z,32.95
2019-03-29T07:48:29.913Z,33.75
2019-03-29T07:50:58.334Z,33.53
2019-03-29T07:53:27.791Z,32.90
2019-03-29T07:55:56.199Z,33.38
2019-03-29T07:58:24.615Z,35.98
2019-03-29T08:00:53.005Z,34.98
2019-03-29T08:03:22.663Z,37.30
2019-03-29T08:05:51.525Z,41.15
2019-03-29T08:08:24.244Z,37.60
2019-03-29T08:10:53.926Z,35.73
2019-03-29T08:13:24.233Z,39.73
2019-03-29T08:15:52.604Z,37.73
2019-03-29T08:18:22.534Z,39.27
2019-03-29T08:20:50.872Z,41.42
2019-03-29T08:23:19.283Z,35.98
2019-03-29T08:25:47.687Z,37.17
2019-03-29T08:28:16.089Z,35.28
2019-03-29T08:30:44.505Z,39.87
2019-03-29T08:33:16.560Z,35.48
2019-03-29T08:38:12.574Z,33.48
2019-03-29T08:40:40.977Z,29.77
2019-03-29T08:43:09.371Z,31.02
2019-03-29T08:45:37.778Z,28.23
2019-03-29T08:48:10.009Z,28.15
2019-03-29T08:50:38.398Z,25.85
2019-03-29T08:53:06.845Z,26.65
2019-03-29T08:55:45.520Z,26.82
2019-03-29T08:58:05.355Z,26.37
2019-03-29T09:00:35.908Z,27.40
2019-03-29T09:03:08.267Z,30.20
2019-03-29T09:05:39.113Z,28.92
2019-03-29T09:08:06.858Z,25.45
2019-03-29T09:10:35.251Z,29.18
2019-03-29T09:13:04.532Z,25.97
2019-03-29T09:15:33.247Z,27.00
2019-03-29T09:18:01.656Z,27.98
2019-03-29T09:20:30.066Z,30.23
2019-03-29T09:22:58.465Z,27.60
2019-03-29T09:25:26.856Z,28.12
2019-03-29T09:27:55.267Z,28.57
2019-03-29T09:30:23.832Z,30.43
2019-03-29T09:32:56.073Z,29.05
2019-03-29T09:35:24.466Z,31.27
2019-03-29T09:37:56.268Z,33.70
2019-03-29T09:40:23.042Z,30.15
2019-03-29T09:43:06.162Z,30.23
2019-03-29T09:45:25.430Z,32.42
2019-03-29T09:47:55.939Z,29.35
2019-03-29T09:50:27.507Z,28.80
2019-03-29T09:52:55.202Z,31.23
2019-03-29T09:55:23.612Z,34.03
2019-03-29T09:57:52.010Z,30.62
2019-03-29T10:00:23.431Z,30.37
2019-03-29T10:02:51.094Z,31.52
2019-03-29T10:05:20.227Z,31.17
2019-03-29T10:07:49.991Z,27.80
2019-03-29T10:10:21.107Z,30.20
2019-03-29T10:12:49.507Z,30.90
2019-03-29T10:15:17.893Z,33.55
2019-03-29T10:17:46.315Z,34.65
2019-03-29T10:20:14.947Z,38.98
2019-03-29T10:22:43.361Z,32.48
2019-03-29T10:25:19.138Z,35.73
2019-03-29T10:27:42.159Z,37.50
2019-03-29T10:30:11.515Z,37.67
2019-03-29T10:32:39.909Z,32.00
2019-03-29T10:35:09.560Z,33.88
2019-03-29T10:37:39.520Z,32.15
2019-03-29T10:40:08.388Z,36.48
2019-03-29T10:42:40.408Z,32.83
2019-03-29T10:45:08.919Z,32.78
2019-03-29T10:47:43.583Z,31.85
2019-03-29T10:50:07.895Z,33.50
2019-03-29T10:52:36.306Z,35.35
2019-03-29T10:55:05.457Z,31.40
2019-03-29T10:57:33.841Z,31.33
2019-03-29T11:00:02.249Z,29.42
2019-03-29T11:02:30.659Z,32.48
2019-03-29T11:05:01.694Z,33.10
2019-03-29T11:07:30.111Z,32.42
2019-03-29T11:09:58.518Z,34.07
2019-03-29T11:12:26.925Z,32.60
2019-03-29T11:14:55.306Z,33.63
2019-03-29T11:17:23.724Z,33.92
2019-03-29T11:19:52.168Z,34.30
2019-03-29T11:22:20.577Z,33.58
2019-03-29T11:24:49.006Z,34.17
2019-03-29T11:27:22.663Z,39.78
2019-03-29T11:29:51.158Z,31.93
2019-03-29T11:32:19.565Z,35.38
2019-03-29T11:34:51.634Z,34.67
2019-03-29T11:37:20.033Z,38.10
2019-03-29T11:39:48.457Z,33.48
2019-03-29T11:42:16.840Z,29.42
2019-03-29T11:44:45.247Z,30.92
2019-03-29T11:47:13.657Z,37.67
2019-03-29T11:49:42.048Z,40.57
2019-03-29T11:52:10.584Z,39.63
2019-03-29T11:54:38.956Z,36.03
2019-03-29T11:57:07.360Z,32.80
2019-03-29T11:59:35.756Z,33.40
2019-03-29T12:02:04.173Z,34.60
2019-03-29T12:04:33.599Z,31.56
2019-03-29T12:07:03.668Z,32.48
2019-03-29T12:09:32.175Z,30.57
2019-03-29T12:12:00.575Z,30.52
2019-03-29T12:14:31.004Z,34.15
2019-03-29T12:17:31.968Z,33.60
2019-03-29T12:20:00.508Z,33.55
2019-03-29T12:22:28.946Z,32.75
2019-03-29T12:24:57.336Z,33.08
2019-03-29T12:27:25.771Z,28.95
2019-03-29T12:30:01.494Z,33.13
2019-03-29T12:32:34.434Z,30.20
2019-03-29T12:35:02.809Z,32.25
2019-03-29T12:37:31.209Z,31.37
2019-03-29T12:39:59.613Z,32.05
2019-03-29T12:42:28.052Z,34.05
2019-03-29T12:44:56.451Z,32.20
2019-03-29T12:47:24.830Z,32.78
2019-03-29T12:49:53.224Z,32.83
2019-03-29T12:52:21.654Z,36.80
2019-03-29T12:54:59.227Z,35.43
2019-03-29T12:57:27.646Z,37.00
2019-03-29T12:59:57.009Z,36.25
2019-03-29T13:02:25.401Z,30.25
2019-03-29T13:04:53.805Z,33.08
2019-03-29T13:07:22.233Z,34.55
2019-03-29T13:09:50.632Z,32.37
2019-03-29T13:12:19.107Z,32.33
2019-03-29T13:14:47.518Z,35.80
2019-03-29T13:17:16.605Z,36.63
2019-03-29T13:19:45.090Z,32.83
2019-03-29T13:22:13.986Z,32.03
2019-03-29T13:24:42.379Z,32.88
2019-03-29T13:27:14.706Z,31.93
2019-03-29T13:32:10.712Z,31.40
2019-03-29T13:34:46.748Z,28.60
2019-03-29T13:38:07.512Z,29.02
2019-03-29T13:40:35.907Z,30.57
2019-03-29T13:44:06.125Z,35.68
2019-03-29T13:46:40.819Z,32.70
2019-03-29T13:49:09.224Z,33.48
2019-03-29T13:52:13.934Z,33.15
2019-03-29T13:54:42.323Z,37.13
2019-03-29T13:58:11.238Z,30.02
2019-03-29T14:00:39.652Z,31.53
2019-03-29T14:03:17.613Z,31.45
2019-03-29T14:05:46.223Z,33.20
2019-03-29T14:08:22.624Z,34.65
2019-03-29T14:10:53.708Z,31.52
2019-03-29T14:14:01.741Z,33.67
2019-03-29T14:16:30.129Z,33.15
2019-03-29T14:18:58.532Z,32.33
2019-03-29T14:21:26.963Z,30.65
2019-03-29T14:23:55.437Z,30.35
2019-03-29T14:26:23.829Z,32.38
2019-03-29T14:28:52.254Z,30.37
2019-03-29T14:31:20.634Z,33.10
2019-03-29T14:34:57.739Z,35.48
2019-03-29T14:37:26.134Z,36.63
2019-03-29T14:39:57.614Z,34.75
2019-03-29T14:42:26.028Z,35.47
2019-03-29T14:44:54.441Z,33.80
2019-03-29T14:47:22.850Z,32.83
2019-03-29T14:49:52.186Z,39.07
2019-03-29T14:52:20.596Z,35.35
2019-03-29T14:54:49.003Z,35.63
2019-03-29T14:57:17.394Z,34.83
2019-03-29T14:59:45.797Z,36.57
2019-03-29T15:02:14.196Z,37.48
2019-03-29T15:04:42.609Z,35.70
2019-03-29T15:07:11.163Z,32.25
2019-03-29T15:09:39.593Z,34.30
2019-03-29T15:12:08.042Z,33.45
2019-03-29T15:14:38.360Z,34.58
2019-03-29T15:17:06.896Z,34.85
2019-03-29T15:19:52.007Z,33.15
2019-03-29T15:22:20.397Z,36.63
2019-03-29T15:25:29.490Z,34.13
2019-03-29T15:27:57.882Z,36.88
2019-03-29T15:30:26.307Z,32.85
2019-03-29T15:33:14.689Z,33.02
2019-03-29T15:35:43.098Z,37.10
2019-03-29T15:39:16.679Z,34.13
2019-03-29T15:41:45.877Z,36.42
2019-03-29T15:44:14.279Z,34.65
2019-03-29T15:46:42.707Z,35.13
2019-03-29T15:49:11.101Z,38.80
2019-03-29T15:51:39.506Z,35.75
2019-03-29T15:54:07.928Z,32.30
2019-03-29T15:56:36.351Z,36.45
2019-03-29T15:59:04.745Z,35.92
2019-03-29T16:01:33.639Z,31.30
2019-03-29T16:04:02.037Z,34.73
2019-03-29T16:06:30.610Z,33.95
2019-03-29T16:08:59.217Z,36.68
2019-03-29T16:11:27.752Z,32.83
2019-03-29T16:13:56.177Z,38.90
2019-03-29T16:16:24.580Z,38.78
2019-03-29T16:18:52.987Z,35.13
2019-03-29T16:21:21.421Z,39.83
2019-03-29T16:23:49.809Z,33.15
2019-03-29T16:26:18.405Z,34.15
2019-03-29T16:28:46.824Z,33.80
2019-03-29T16:31:15.739Z,35.20
2019-03-29T16:33:44.683Z,38.40
2019-03-29T16:36:13.091Z,37.48
2019-03-29T16:38:41.945Z,35.03
2019-03-29T16:41:10.369Z,37.28
2019-03-29T16:43:38.789Z,37.03
2019-03-29T16:46:07.296Z,41.85
2019-03-29T16:48:35.711Z,37.30
2019-03-29T16:51:04.184Z,36.17
2019-03-29T16:53:32.589Z,37.85
2019-03-29T16:56:01.106Z,38.55
2019-03-29T16:58:29.508Z,34.73
2019-03-29T17:00:57.916Z,36.40
2019-03-29T17:03:27.419Z,39.18
2019-03-29T17:05:55.820Z,36.40
2019-03-29T17:08:24.300Z,38.50
2019-03-29T17:10:52.708Z,40.93
2019-03-29T17:13:21.324Z,35.55
2019-03-29T17:16:00.978Z,35.53
2019-03-29T17:18:29.243Z,38.40
2019-03-29T17:20:50.128Z,36.68
2019-03-29T17:23:18.527Z,36.65
2019-03-29T17:25:51.380Z,43.73
2019-03-29T17:28:23.507Z,36.35
2019-03-29T17:33:22.512Z,37.73
2019-03-29T17:35:54.206Z,43.65
2019-03-29T17:38:22.626Z,42.90
2019-03-29T17:40:51.037Z,38.53
2019-03-29T17:43:19.435Z,41.25
2019-03-29T17:45:47.852Z,36.95
2019-03-29T17:48:16.239Z,37.60
2019-03-29T17:50:48.552Z,40.33
2019-03-29T17:53:16.979Z,42.75
2019-03-29T17:55:45.380Z,42.53
2019-03-29T17:58:13.804Z,44.85
2019-03-29T18:00:42.837Z,45.30
2019-03-29T18:03:59.931Z,44.50
2019-03-29T18:11:58.132Z,43.78
2019-03-29T18:14:26.571Z,44.85
2019-03-29T18:18:33.720Z,41.15
2019-03-29T18:22:06.915Z,44.08
2019-03-29T18:24:34.637Z,40.35
2019-03-29T18:28:06.071Z,41.73
2019-03-29T18:30:37.024Z,48.45
2019-03-29T18:33:06.389Z,48.58
2019-03-29T18:35:34.893Z,53.90
2019-03-29T18:38:54.542Z,48.75
2019-03-29T18:41:23.020Z,47.38
2019-03-29T18:43:51.455Z,47.88
2019-03-29T18:46:44.712Z,53.10
2019-03-29T18:49:10.809Z,51.95
2019-03-29T18:51:39.219Z,52.75
2019-03-29T18:54:07.701Z,57.25
2019-03-29T18:56:36.113Z,53.80
2019-03-29T18:59:05.447Z,60.00
2019-03-29T19:01:33.934Z,52.30
2019-03-29T19:04:02.479Z,55.48
2019-03-29T19:06:30.840Z,63.15
2019-03-29T19:08:59.254Z,56.00
2019-03-29T19:11:28.760Z,54.93
2019-03-29T19:13:59.304Z,59.25
2019-03-29T19:16:27.740Z,59.90
2019-03-29T19:19:24.131Z,54.48
2019-03-29T19:21:52.524Z,57.33
2019-03-29T19:24:20.927Z,57.45
2019-03-29T19:26:51.759Z,54.27
2019-03-29T19:29:20.378Z,60.88
2019-03-29T19:31:48.764Z,60.15
2019-03-29T19:34:20.938Z,54.88
2019-03-29T19:36:49.333Z,57.40
2019-03-29T19:39:18.009Z,56.13
2019-03-29T19:41:46.377Z,62.90
2019-03-29T19:44:14.802Z,60.23
2019-03-29T19:46:43.253Z,53.42
2019-03-29T19:49:11.643Z,57.83
2019-03-29T19:51:40.055Z,62.95
2019-03-29T19:54:12.439Z,56.55
2019-03-29T19:56:41.581Z,64.73
2019-03-29T19:59:14.235Z,65.75
2019-03-29T20:01:42.632Z,64.27
2019-03-29T20:04:11.028Z,63.92
2019-03-29T20:06:39.490Z,59.67
2019-03-29T20:09:51.191Z,63.80
2019-03-29T20:12:19.594Z,66.47
2019-03-29T20:14:48.052Z,77.77
2019-03-29T20:17:26.898Z,79.22
2019-03-29T20:19:46.600Z,74.60
2019-03-29T20:23:09.442Z,80.53
2019-03-29T20:26:49.274Z,67.17
2019-03-29T20:31:54.716Z,70.32
2019-03-29T20:36:50.756Z,71.82
2019-03-29T20:39:19.143Z,78.33
2019-03-29T20:41:48.581Z,75.10
2019-03-29T20:44:17.218Z,70.30
2019-03-29T20:46:45.675Z,72.00
2019-03-29T20:49:14.099Z,70.47
2019-03-29T20:51:42.479Z,69.50
2019-03-29T20:54:10.919Z,78.55
2019-03-29T20:56:39.326Z,74.45
2019-03-29T20:59:07.741Z,74.22
2019-03-29T21:01:36.149Z,68.42
2019-03-29T21:04:04.627Z,70.92
2019-03-29T21:06:33.081Z,70.47
2019-03-29T21:09:01.466Z,73.40
2019-03-29T21:11:29.931Z,82.47
2019-03-29T21:13:58.315Z,89.00
2019-03-29T21:16:26.719Z,72.03
2019-03-29T21:18:55.123Z,75.67
2019-03-29T21:21:23.522Z,74.60
2019-03-29T21:23:51.942Z,81.60
2019-03-29T21:26:20.331Z,85.53
2019-03-29T21:28:48.725Z,78.25
2019-03-29T21:31:17.216Z,70.30
2019-03-29T21:33:47.723Z,62.58
2019-03-29T21:36:18.073Z,64.50
2019-03-29T21:38:48.320Z,73.57
2019-03-29T21:41:19.400Z,78.07
2019-03-29T21:43:47.855Z,72.82
2019-03-29T21:46:16.238Z,70.95
2019-03-29T21:48:44.657Z,72.92
2019-03-29T21:51:13.060Z,72.32
2019-03-29T21:53:43.796Z,69.03
2019-03-29T21:56:11.623Z,70.30
2019-03-29T21:58:44.073Z,70.05
2019-03-29T22:01:13.504Z,73.12
2019-03-29T22:03:41.901Z,68.70
2019-03-29T22:06:10.345Z,71.00
2019-03-29T22:08:39.684Z,68.28
2019-03-29T22:11:08.672Z,67.17
2019-03-29T22:13:42.182Z,72.47
2019-03-29T22:16:10.617Z,73.70
2019-03-29T22:18:39.007Z,71.37
2019-03-29T22:21:07.413Z,79.37
2019-03-29T22:23:35.825Z,82.08
2019-03-29T22:26:07.659Z,78.95
2019-03-29T22:28:37.907Z,88.52
2019-03-29T22:31:07.209Z,101.90
2019-03-29T22:33:35.701Z,96.67
2019-03-29T22:36:06.493Z,81.37
2019-03-29T22:38:35.925Z,53.90
2019-03-29T22:41:04.316Z,29.35
2019-03-29T22:43:32.728Z,26.55
2019-03-29T22:46:02.138Z,28.77
2019-03-29T22:48:30.526Z,33.58
2019-03-29T22:50:58.972Z,35.33
2019-03-29T22:53:27.394Z,32.42
2019-03-29T22:55:55.800Z,48.00
2019-03-29T22:58:24.300Z,48.38
2019-03-29T23:00:55.305Z,61.58
2019-03-29T23:03:24.046Z,77.05
2019-03-29T23:05:52.480Z,72.65
2019-03-29T23:08:22.001Z,65.92
2019-03-29T23:10:50.418Z,73.78
2019-03-29T23:13:18.810Z,76.47
2019-03-29T23:15:47.230Z,74.65
2019-03-29T23:18:15.684Z,90.83
2019-03-29T23:20:44.042Z,89.60
2019-03-29T23:23:12.464Z,100.97
2019-03-29T23:25:43.413Z,105.15
2019-03-29T23:28:12.912Z,91.30
2019-03-29T23:30:41.316Z,78.60
2019-03-29T23:33:09.716Z,86.63
2019-03-29T23:35:38.114Z,78.70
2019-03-29T23:38:06.548Z,62.35
2019-03-29T23:40:34.931Z,58.30
2019-03-29T23:43:03.320Z,45.92
2019-03-29T23:45:31.734Z,40.25
2019-03-29T23:48:00.130Z,36.80
2019-03-29T23:50:28.532Z,65.92
2019-03-29T23:52:56.931Z,70.22
2019-03-29T23:55:25.365Z,86.28
2019-03-29T23:57:53.771Z,81.67
